Time,TemperatureF,DewpointF,PressureIn,WindDirection,WindDirectionDegrees,WindSpeedMPH,WindSpeedGustMPH,Humidity,HourlyPrecipIn,Conditions,Clouds,dailyrainin,SoftwareType,DateUTC
2013-01-01 00:00:00,41.0,29.4,29.77,WSW,248,13.2,13.2,63,0.00,CLR,CLR,0.00,WeatherDisplay:10.37,2013-01-01 05:00:00,
2013-01-01 00:01:00,41.2,29.5,29.77,SSW,202,12.7,12.7,63,0.00,CLR,CLR,0.00,WeatherDisplay:10.37,2013-01-01 05:01:00,
2013-01-01 00:02:00,41.2,29.5,29.77,SSW,202,12.7,12.7,63,0.00,CLR,CLR,0.00,WeatherDisplay:10.37,2013-01-01 05:02:00,
2013-01-01 00:07:00,41.2,29.5,29.78,SE,135,2.3,2.3,63,0.00,CLR,CLR,0.00,WeatherDisplay:10.37,2013-01-01 05:07:00,
2013-01-01 00:12:00,41.2,29.5,29.78,South,180,5.8,5.8,63,0.00,CLR,CLR,0.00,WeatherDisplay:10.37,2013-01-01 05:12:00,
2013-01-01 00:17:00,41.2,29.9,29.77,South,180,8.3,8.3,64,0.00,CLR,CLR,0.00,WeatherDisplay:10.37,2013-01-01 05:17:00,
2013-01-01 00:23:00,41.2,29.9,29.77,SSE,158,3.5,3.5,64,0.00,CLR,CLR,0.00,WeatherDisplay:10.37,2013-01-01 05:23:00,
2013-01-01 00:28:00,41.2,29.9,29.77,SSW,202,5.8,5.8,64,0.00,CLR,CLR,0.00,WeatherDisplay:10.37,2013-01-01 05:28:00,
2013-01-01 00:33:00,41.0,29.7,29.77,SSW,202,5.8,5.8,64,0.00,CLR,CLR,0.00,WeatherDisplay:10.37,2013-01-01 05:33:00,
2013-01-01 00:38:00,41.0,30.1,29.77,SSW,202,1.2,0.0,65,0.00,CLR,CLR,0.00,WeatherDisplay:10.37,2013-01-01 05:38:00,
2013-01-01 00:43:00,40.8,30.0,29.77,SSW,202,1.2,1.2,65,0.00,CLR,CLR,0.00,WeatherDisplay:10.37,2013-01-01 05:43:00,
2013-01-01 00:48:00,40.8,30.0,29.78,SSW,202,4.7,4.7,65,0.00,CLR,CLR,0.00,WeatherDisplay:10.37,2013-01-01 05:48:00,
2013-01-01 00:53:00,40.6,30.2,29.77,South,180,5.6,5.6,66,0.00,CLR,CLR,0.00,WeatherDisplay:10.37,2013-01-01 05:53:00,
2013-01-01 00:58:00,40.6,30.2,29.78,South,180,6.9,6.9,66,0.00,CLR,CLR,0.00,WeatherDisplay:10.37,2013-01-01 05:58:00,
2013-01-01 01:03:00,40.6,30.2,29.78,WNW,292,3.5,0.0,66,0.00,CLR,CLR,0.00,WeatherDisplay:10.37,2013-01-01 06:03:00,
2013-01-01 01:09:00,40.8,30.3,29.78,SE,135,3.5,0.0,66,0.00,CLR,CLR,0.00,WeatherDisplay:10.37,2013-01-01 06:09:00,
2013-01-01 01:14:00,40.8,30.3,29.77,SSW,202,6.9,6.9,66,0.00,CLR,CLR,0.00,WeatherDisplay:10.37,2013-01-01 06:14:00,
2013-01-01 01:19:00,40.8,30.3,29.77,SW,225,5.6,5.6,66,0.00,CLR,CLR,0.00,WeatherDisplay:10.37,2013-01-01 06:19:00,
2013-01-01 01:25:00,40.8,30.3,29.77,South,180,3.5,3.5,66,0.00,CLR,CLR,0.00,WeatherDisplay:10.37,2013-01-01 06:25:00,
2013-01-01 01:30:00,40.8,30.3,29.77,SSW,202,2.7,0.0,66,0.00,CLR,CLR,0.00,WeatherDisplay:10.37,2013-01-01 06:30:00,
2013-01-01 01:35:00,40.8,30.3,29.77,South,180,0.0,0.0,66,0.00,CLR,CLR,0.00,WeatherDisplay:10.37,2013-01-01 06:35:00,
2013-01-01 01:40:00,40.8,30.3,29.77,SW,225,0.0,0.0,66,0.00,CLR,CLR,0.00,WeatherDisplay:10.37,2013-01-01 06:40:00,
2013-01-01 01:45:00,40.8,30.3,29.77,SSE,158,0.0,0.0,66,0.00,CLR,CLR,0.00,WeatherDisplay:10.37,2013-01-01 06:45:00,
2013-01-01 01:51:00,40.6,30.5,29.77,South,180,0.0,0.0,67,0.00,CLR,CLR,0.00,WeatherDisplay:10.37,2013-01-01 06:51:00,
2013-01-01 01:56:00,40.5,30.4,29.77,SSW,202,4.6,4.6,67,0.00,CLR,CLR,0.00,WeatherDisplay:10.37,2013-01-01 06:56:00,
2013-01-01 02:01:00,40.5,30.4,29.78,SW,225,1.2,1.2,67,0.00,CLR,CLR,0.00,WeatherDisplay:10.37,2013-01-01 07:01:00,
2013-01-01 02:06:00,40.5,30.4,29.78,SSE,158,0.0,0.0,67,0.00,CLR,CLR,0.00,WeatherDisplay:10.37,2013-01-01 07:06:00,
2013-01-01 02:12:00,40.5,30.7,29.78,SSE,158,1.2,1.2,68,0.00,CLR,CLR,0.00,WeatherDisplay:10.37,2013-01-01 07:12:00,
2013-01-01 02:17:00,40.3,30.6,29.78,South,180,0.0,0.0,68,0.00,CLR,CLR,0.00,WeatherDisplay:10.37,2013-01-01 07:17:00,
2013-01-01 02:22:00,40.3,30.2,29.78,SE,135,0.0,0.0,67,0.00,CLR,CLR,0.00,WeatherDisplay:10.37,2013-01-01 07:22:00,
2013-01-01 02:27:00,40.3,30.6,29.78,SSW,202,0.0,0.0,68,0.00,CLR,CLR,0.00,WeatherDisplay:10.37,2013-01-01 07:27:00,
2013-01-01 02:33:00,40.3,30.6,29.78,SE,135,0.0,0.0,68,0.00,CLR,CLR,0.00,WeatherDisplay:10.37,2013-01-01 07:33:00,
2013-01-01 02:38:00,40.3,30.6,29.77,South,180,1.2,0.0,68,0.00,CLR,CLR,0.00,WeatherDisplay:10.37,2013-01-01 07:38:00,
2013-01-01 02:43:00,40.3,30.6,29.77,SE,135,0.0,0.0,68,0.00,CLR,CLR,0.00,WeatherDisplay:10.37,2013-01-01 07:43:00,
2013-01-01 02:48:00,40.1,30.7,29.77,SSE,158,0.0,0.0,69,0.00,CLR,CLR,0.00,WeatherDisplay:10.37,2013-01-01 07:48:00,
2013-01-01 02:53:00,40.1,31.1,29.77,SSE,158,4.7,4.7,70,0.00,CLR,CLR,0.00,WeatherDisplay:10.37,2013-01-01 07:53:00,
2013-01-01 02:58:00,39.9,30.9,29.78,SSE,158,1.2,1.2,70,0.00,CLR,CLR,0.00,WeatherDisplay:10.37,2013-01-01 07:58:00,
2013-01-01 03:04:00,39.9,30.6,29.78,West,270,1.2,1.2,69,0.00,CLR,CLR,0.00,WeatherDisplay:10.37,2013-01-01 08:04:00,
2013-01-01 03:09:00,39.9,30.6,29.79,WSW,248,0.0,0.0,69,0.00,CLR,CLR,0.00,WeatherDisplay:10.37,2013-01-01 08:09:00,
2013-01-01 03:14:00,39.9,30.6,29.78,SSW,202,0.0,0.0,69,0.00,CLR,CLR,0.00,WeatherDisplay:10.37,2013-01-01 08:14:00,
2013-01-01 03:19:00,39.9,30.6,29.78,SSW,202,2.5,2.5,69,0.00,CLR,CLR,0.00,WeatherDisplay:10.37,2013-01-01 08:19:00,
2013-01-01 03:24:00,39.9,30.6,29.78,SW,225,0.0,0.0,69,0.00,CLR,CLR,0.00,WeatherDisplay:10.37,2013-01-01 08:24:00,
2013-01-01 03:29:00,39.9,30.6,29.77,WSW,248,0.0,0.0,69,0.00,CLR,CLR,0.00,WeatherDisplay:10.37,2013-01-01 08:29:00,
2013-01-01 03:35:00,39.9,30.6,29.77,SW,225,3.5,3.5,69,0.00,CLR,CLR,0.00,WeatherDisplay:10.37,2013-01-01 08:35:00,
2013-01-01 03:40:00,39.9,30.6,29.78,SSW,202,3.5,3.5,69,0.00,CLR,CLR,0.00,WeatherDisplay:10.37,2013-01-01 08:40:00,
2013-01-01 03:45:00,39.9,30.6,29.77,South,180,4.9,4.9,69,0.00,CLR,CLR,0.00,WeatherDisplay:10.37,2013-01-01 08:45:00,
2013-01-01 03:51:00,39.9,30.6,29.77,SSW,202,3.5,3.5,69,0.00,CLR,CLR,0.00,WeatherDisplay:10.37,2013-01-01 08:51:00,
2013-01-01 03:56:00,39.9,30.6,29.77,SW,225,6.9,6.9,69,0.00,CLR,CLR,0.00,WeatherDisplay:10.37,2013-01-01 08:56:00,
2013-01-01 04:01:00,39.9,30.2,29.76,WSW,248,0.0,0.0,68,0.00,CLR,CLR,0.00,WeatherDisplay:10.37,2013-01-01 09:01:00,
2013-01-01 04:06:00,39.9,30.2,29.77,SSW,202,8.1,8.1,68,0.00,CLR,CLR,0.00,WeatherDisplay:10.37,2013-01-01 09:06:00,
2013-01-01 04:11:00,39.9,30.2,29.77,SSW,202,10.4,10.4,68,0.00,CLR,CLR,0.00,WeatherDisplay:10.37,2013-01-01 09:11:00,
2013-01-01 04:17:00,39.9,30.2,29.76,SSW,202,3.5,3.5,68,0.00,CLR,CLR,0.00,WeatherDisplay:10.37,2013-01-01 09:17:00,
2013-01-01 04:22:00,39.9,30.2,29.76,WNW,292,4.9,4.9,68,0.00,CLR,CLR,0.00,WeatherDisplay:10.37,2013-01-01 09:22:00,
2013-01-01 04:27:00,39.9,30.2,29.77,NW,315,4.6,4.6,68,0.00,CLR,CLR,0.00,WeatherDisplay:10.37,2013-01-01 09:27:00,
2013-01-01 04:32:00,40.1,30.4,29.77,North,0,6.9,6.9,68,0.00,CLR,CLR,0.00,WeatherDisplay:10.37,2013-01-01 09:32:00,
2013-01-01 04:37:00,40.1,30.4,29.77,WSW,248,2.7,2.7,68,0.00,CLR,CLR,0.00,WeatherDisplay:10.37,2013-01-01 09:37:00,
2013-01-01 04:43:00,40.1,30.4,29.76,SSE,158,3.5,3.5,68,0.00,CLR,CLR,0.00,WeatherDisplay:10.37,2013-01-01 09:43:00,
2013-01-01 04:48:00,39.9,30.2,29.77,South,180,6.9,6.9,68,0.00,CLR,CLR,0.00,WeatherDisplay:10.37,2013-01-01 09:48:00,
2013-01-01 04:53:00,39.9,30.2,29.77,SSE,158,0.0,0.0,68,0.00,CLR,CLR,0.00,WeatherDisplay:10.37,2013-01-01 09:53:00,
2013-01-01 04:58:00,39.7,30.0,29.77,SW,225,2.0,2.0,68,0.00,CLR,CLR,0.00,WeatherDisplay:10.37,2013-01-01 09:58:00,
2013-01-01 05:04:00,39.6,29.9,29.77,SW,225,3.5,0.0,68,0.00,CLR,CLR,0.00,WeatherDisplay:10.37,2013-01-01 10:04:00,
2013-01-01 05:09:00,39.4,29.7,29.77,SSW,202,3.5,3.5,68,0.00,CLR,CLR,0.00,WeatherDisplay:10.37,2013-01-01 10:09:00,
2013-01-01 05:14:00,39.4,29.7,29.77,South,180,6.9,6.9,68,0.00,CLR,CLR,0.00,WeatherDisplay:10.37,2013-01-01 10:14:00,
2013-01-01 05:19:00,39.4,29.7,29.78,SSW,202,5.1,5.1,68,0.00,CLR,CLR,0.00,WeatherDisplay:10.37,2013-01-01 10:19:00,
2013-01-01 05:24:00,39.6,29.9,29.77,South,180,4.7,4.7,68,0.00,CLR,CLR,0.00,WeatherDisplay:10.37,2013-01-01 10:24:00,
2013-01-01 05:30:00,39.6,29.9,29.76,SSE,158,6.0,6.0,68,0.00,CLR,CLR,0.00,WeatherDisplay:10.37,2013-01-01 10:30:00,
2013-01-01 05:35:00,39.6,29.9,29.76,WNW,292,4.6,4.6,68,0.00,CLR,CLR,0.00,WeatherDisplay:10.37,2013-01-01 10:35:00,
2013-01-01 05:40:00,39.6,29.5,29.76,SSW,202,6.9,6.9,67,0.00,CLR,CLR,0.00,WeatherDisplay:10.37,2013-01-01 10:40:00,
2013-01-01 05:45:00,39.6,29.5,29.76,South,180,10.4,10.4,67,0.00,CLR,CLR,0.00,WeatherDisplay:10.37,2013-01-01 10:45:00,
2013-01-01 05:50:00,39.6,29.5,29.76,South,180,3.5,3.5,67,0.00,CLR,CLR,0.00,WeatherDisplay:10.37,2013-01-01 10:50:00,
2013-01-01 05:56:00,39.6,29.9,29.76,ESE,112,4.7,4.7,68,0.00,CLR,CLR,0.00,WeatherDisplay:10.37,2013-01-01 10:56:00,
2013-01-01 06:01:00,39.4,29.7,29.76,SE,135,0.0,0.0,68,0.00,CLR,CLR,0.00,WeatherDisplay:10.37,2013-01-01 11:01:00,
2013-01-01 06:06:00,39.4,29.7,29.77,SE,135,1.2,1.2,68,0.00,CLR,CLR,0.00,WeatherDisplay:10.37,2013-01-01 11:06:00,
2013-01-01 06:11:00,39.0,29.3,29.78,ESE,112,3.5,3.5,68,0.00,CLR,CLR,0.00,WeatherDisplay:10.37,2013-01-01 11:11:00,
2013-01-01 06:16:00,39.0,29.7,29.77,SE,135,1.6,1.6,69,0.00,CLR,CLR,0.00,WeatherDisplay:10.37,2013-01-01 11:16:00,
2013-01-01 06:22:00,38.8,29.5,29.77,ESE,112,1.6,1.6,69,0.00,CLR,CLR,0.00,WeatherDisplay:10.37,2013-01-01 11:22:00,
2013-01-01 06:27:00,38.8,29.5,29.78,SE,135,1.2,0.0,69,0.00,CLR,CLR,0.00,WeatherDisplay:10.37,2013-01-01 11:27:00,
2013-01-01 06:32:00,38.8,29.5,29.78,South,180,3.5,3.5,69,0.00,CLR,CLR,0.00,WeatherDisplay:10.37,2013-01-01 11:32:00,
2013-01-01 06:37:00,38.8,29.5,29.78,SE,135,2.3,2.3,69,0.00,CLR,CLR,0.00,WeatherDisplay:10.37,2013-01-01 11:37:00,
2013-01-01 06:42:00,38.8,29.5,29.77,ESE,112,2.9,2.9,69,0.00,CLR,CLR,0.00,WeatherDisplay:10.37,2013-01-01 11:42:00,
2013-01-01 06:47:00,38.7,29.4,29.78,ESE,112,2.3,2.3,69,0.00,CLR,CLR,0.00,WeatherDisplay:10.37,2013-01-01 11:47:00,
2013-01-01 06:52:00,38.5,29.5,29.79,ESE,112,3.4,3.4,70,0.00,CLR,CLR,0.00,WeatherDisplay:10.37,2013-01-01 11:52:00,
2013-01-01 06:57:00,38.5,29.5,29.78,ESE,112,3.5,3.5,70,0.00,CLR,CLR,0.00,WeatherDisplay:10.37,2013-01-01 11:57:00,
2013-01-01 07:03:00,38.5,29.5,29.78,SE,135,1.2,1.2,70,0.00,CLR,CLR,0.00,WeatherDisplay:10.37,2013-01-01 12:03:00,
2013-01-01 07:08:00,38.5,29.5,29.77,ESE,112,1.2,1.2,70,0.00,CLR,CLR,0.00,WeatherDisplay:10.37,2013-01-01 12:08:00,
2013-01-01 07:13:00,38.5,29.5,29.77,ESE,112,2.3,0.0,70,0.00,CLR,CLR,0.00,WeatherDisplay:10.37,2013-01-01 12:13:00,
2013-01-01 07:18:00,38.5,29.5,29.78,SE,135,0.0,0.0,70,0.00,CLR,CLR,0.00,WeatherDisplay:10.37,2013-01-01 12:18:00,
2013-01-01 07:23:00,38.5,29.5,29.78,ESE,112,0.0,0.0,70,0.00,CLR,CLR,0.00,WeatherDisplay:10.37,2013-01-01 12:23:00,
2013-01-01 07:29:00,38.5,29.5,29.77,ESE,112,0.0,0.0,70,0.00,CLR,CLR,0.00,WeatherDisplay:10.37,2013-01-01 12:29:00,
2013-01-01 07:34:00,38.5,29.5,29.77,South,180,0.0,0.0,70,0.00,CLR,CLR,0.00,WeatherDisplay:10.37,2013-01-01 12:34:00,
2013-01-01 07:39:00,38.5,29.9,29.77,SE,135,0.0,0.0,71,0.00,CLR,CLR,0.00,WeatherDisplay:10.37,2013-01-01 12:39:00,
2013-01-01 07:44:00,38.5,29.5,29.77,SE,135,1.2,0.0,70,0.00,CLR,CLR,0.00,WeatherDisplay:10.37,2013-01-01 12:44:00,
2013-01-01 07:49:00,38.5,29.5,29.77,SE,135,4.6,4.6,70,0.00,CLR,CLR,0.00,WeatherDisplay:10.37,2013-01-01 12:49:00,
2013-01-01 07:55:00,38.5,29.5,29.77,ESE,112,3.5,3.5,70,0.00,CLR,CLR,0.00,WeatherDisplay:10.37,2013-01-01 12:55:00,
2013-01-01 08:00:00,38.5,29.9,29.78,ESE,112,0.0,0.0,71,0.00,CLR,CLR,0.00,WeatherDisplay:10.37,2013-01-01 13:00:00,
2013-01-01 08:05:00,38.5,29.9,29.77,SE,135,0.0,0.0,71,0.00,CLR,CLR,0.00,WeatherDisplay:10.37,2013-01-01 13:05:00,
2013-01-01 08:11:00,38.5,29.9,29.78,SE,135,0.0,0.0,71,0.00,CLR,CLR,0.00,WeatherDisplay:10.37,2013-01-01 13:11:00,
2013-01-01 08:16:00,38.5,29.9,29.77,ESE,112,3.5,3.5,71,0.00,CLR,CLR,0.00,WeatherDisplay:10.37,2013-01-01 13:16:00,
2013-01-01 08:21:00,38.5,29.9,29.77,SSE,158,0.0,0.0,71,0.00,CLR,CLR,0.00,WeatherDisplay:10.37,2013-01-01 13:21:00,
2013-01-01 08:26:00,38.7,30.1,29.78,ESE,112,1.2,1.2,71,0.00,CLR,CLR,0.00,WeatherDisplay:10.37,2013-01-01 13:26:00,
2013-01-01 08:31:00,38.8,30.2,29.78,SE,135,0.0,0.0,71,0.00,CLR,CLR,0.00,WeatherDisplay:10.37,2013-01-01 13:31:00,
2013-01-01 08:37:00,38.8,30.2,29.78,SE,135,2.3,2.3,71,0.00,CLR,CLR,0.00,WeatherDisplay:10.37,2013-01-01 13:37:00,
2013-01-01 08:42:00,39.0,30.4,29.77,SE,135,3.5,3.5,71,0.00,CLR,CLR,0.00,WeatherDisplay:10.37,2013-01-01 13:42:00,
2013-01-01 08:47:00,39.0,30.1,29.78,ESE,112,2.3,2.3,70,0.00,CLR,CLR,0.00,WeatherDisplay:10.37,2013-01-01 13:47:00,
2013-01-01 08:52:00,39.4,30.4,29.78,ESE,112,0.0,0.0,70,0.00,CLR,CLR,0.00,WeatherDisplay:10.37,2013-01-01 13:52:00,
2013-01-01 08:57:00,39.6,30.6,29.78,SE,135,0.0,0.3,70,0.00,CLR,CLR,0.00,WeatherDisplay:10.37,2013-01-01 13:57:00,
2013-01-01 09:03:00,39.7,30.8,29.78,SE,135,0.0,0.0,70,0.00,CLR,CLR,0.00,WeatherDisplay:10.37,2013-01-01 14:03:00,
2013-01-01 09:08:00,39.9,30.9,29.78,SE,135,1.1,0.0,70,0.00,CLR,CLR,0.00,WeatherDisplay:10.37,2013-01-01 14:08:00,
2013-01-01 09:13:00,39.9,30.9,29.79,SE,135,0.0,0.0,70,0.00,CLR,CLR,0.00,WeatherDisplay:10.37,2013-01-01 14:13:00,
2013-01-01 09:18:00,39.9,30.9,29.79,ESE,112,1.3,1.3,70,0.00,CLR,CLR,0.00,WeatherDisplay:10.37,2013-01-01 14:18:00,
2013-01-01 09:23:00,40.1,30.7,29.79,SE,135,2.3,2.3,69,0.00,CLR,CLR,0.00,WeatherDisplay:10.37,2013-01-01 14:23:00,
2013-01-01 09:29:00,40.3,30.9,29.79,ESE,112,3.4,3.4,69,0.00,CLR,CLR,0.00,WeatherDisplay:10.37,2013-01-01 14:29:00,
2013-01-01 09:34:00,40.3,30.9,29.79,ESE,112,1.2,1.2,69,0.00,CLR,CLR,0.00,WeatherDisplay:10.37,2013-01-01 14:34:00,
2013-01-01 09:39:00,40.5,31.1,29.79,SE,135,0.0,0.0,69,0.00,CLR,CLR,0.00,WeatherDisplay:10.37,2013-01-01 14:39:00,
2013-01-01 09:44:00,40.6,31.3,29.80,ESE,112,1.2,0.0,69,0.00,CLR,CLR,0.00,WeatherDisplay:10.37,2013-01-01 14:44:00,
2013-01-01 09:49:00,40.8,31.1,29.80,ESE,112,0.0,0.0,68,0.00,CLR,CLR,0.00,WeatherDisplay:10.37,2013-01-01 14:49:00,
2013-01-01 09:55:00,41.0,31.2,29.79,South,180,0.0,0.0,68,0.00,CLR,CLR,0.00,WeatherDisplay:10.37,2013-01-01 14:55:00,
2013-01-01 10:00:00,41.4,31.6,29.79,SE,135,3.5,3.5,68,0.00,CLR,CLR,0.00,WeatherDisplay:10.37,2013-01-01 15:00:00,
2013-01-01 10:05:00,41.5,31.8,29.79,SE,135,0.0,0.0,68,0.00,CLR,CLR,0.00,WeatherDisplay:10.37,2013-01-01 15:05:00,
2013-01-01 10:10:00,42.1,31.9,29.79,South,180,0.0,0.0,67,0.00,CLR,CLR,0.00,WeatherDisplay:10.37,2013-01-01 15:10:00,
2013-01-01 10:15:00,42.4,32.3,29.79,SSE,158,0.7,0.7,67,0.00,CLR,CLR,0.00,WeatherDisplay:10.37,2013-01-01 15:15:00,
2013-01-01 10:21:00,42.6,32.0,29.79,South,180,1.3,1.3,66,0.00,CLR,CLR,0.00,WeatherDisplay:10.37,2013-01-01 15:21:00,
2013-01-01 10:26:00,43.0,32.4,29.79,SW,225,5.8,5.8,66,0.00,CLR,CLR,0.00,WeatherDisplay:10.37,2013-01-01 15:26:00,
2013-01-01 10:31:00,43.0,32.4,29.79,SW,225,2.0,2.0,66,0.00,CLR,CLR,0.00,WeatherDisplay:10.37,2013-01-01 15:31:00,
2013-01-01 10:36:00,43.2,32.2,29.79,SSE,158,5.8,5.8,65,0.00,CLR,CLR,0.00,WeatherDisplay:10.37,2013-01-01 15:36:00,
2013-01-01 10:41:00,43.2,32.2,29.79,South,180,5.8,5.8,65,0.00,CLR,CLR,0.00,WeatherDisplay:10.37,2013-01-01 15:41:00,
2013-01-01 10:47:00,43.2,31.8,29.79,NW,315,0.0,0.0,64,0.00,CLR,CLR,0.00,WeatherDisplay:10.37,2013-01-01 15:47:00,
2013-01-01 10:52:00,43.3,32.0,29.78,SW,225,0.0,0.0,64,0.00,CLR,CLR,0.00,WeatherDisplay:10.37,2013-01-01 15:52:00,
2013-01-01 10:57:00,43.5,32.1,29.77,ESE,112,0.0,0.0,64,0.00,CLR,CLR,0.00,WeatherDisplay:10.37,2013-01-01 15:57:00,
2013-01-01 11:02:00,43.9,32.5,29.78,SSW,202,1.2,1.2,64,0.00,CLR,CLR,0.00,WeatherDisplay:10.37,2013-01-01 16:02:00,
2013-01-01 11:07:00,44.1,32.3,29.78,South,180,2.7,2.7,63,0.00,CLR,CLR,0.00,WeatherDisplay:10.37,2013-01-01 16:07:00,
2013-01-01 11:12:00,44.1,32.3,29.79,SW,225,4.6,4.6,63,0.00,CLR,CLR,0.00,WeatherDisplay:10.37,2013-01-01 16:12:00,
2013-01-01 11:17:00,44.1,31.9,29.79,SW,225,8.1,8.1,62,0.00,CLR,CLR,0.00,WeatherDisplay:10.37,2013-01-01 16:17:00,
2013-01-01 11:22:00,43.9,31.7,29.78,SW,225,4.6,4.6,62,0.00,CLR,CLR,0.00,WeatherDisplay:10.37,2013-01-01 16:22:00,
2013-01-01 11:27:00,43.9,31.7,29.78,SSE,158,3.4,3.4,62,0.00,CLR,CLR,0.00,WeatherDisplay:10.37,2013-01-01 16:27:00,
2013-01-01 11:32:00,43.9,31.7,29.77,West,270,2.5,2.5,62,0.00,CLR,CLR,0.00,WeatherDisplay:10.37,2013-01-01 16:32:00,
2013-01-01 11:37:00,43.7,31.5,29.77,SW,225,3.5,0.0,62,0.00,CLR,CLR,0.00,WeatherDisplay:10.37,2013-01-01 16:37:00,
2013-01-01 11:43:00,43.7,31.5,29.77,WSW,248,3.5,3.5,62,0.00,CLR,CLR,0.00,WeatherDisplay:10.37,2013-01-01 16:43:00,
2013-01-01 11:48:00,43.7,31.5,29.76,SSW,202,4.9,4.9,62,0.00,CLR,CLR,0.00,WeatherDisplay:10.37,2013-01-01 16:48:00,
2013-01-01 11:53:00,43.7,31.5,29.77,SSW,202,3.5,3.5,62,0.00,CLR,CLR,0.00,WeatherDisplay:10.37,2013-01-01 16:53:00,
2013-01-01 11:58:00,43.9,31.7,29.75,SSW,202,4.6,4.6,62,0.00,CLR,CLR,0.00,WeatherDisplay:10.37,2013-01-01 16:58:00,
2013-01-01 12:03:00,43.9,31.7,29.76,SSW,202,3.6,3.6,62,0.00,CLR,CLR,0.00,WeatherDisplay:10.37,2013-01-01 17:03:00,
2013-01-01 12:08:00,44.1,31.9,29.76,SSW,202,1.2,1.2,62,0.00,CLR,CLR,0.00,WeatherDisplay:10.37,2013-01-01 17:08:00,
2013-01-01 12:13:00,44.2,31.6,29.75,SW,225,0.0,0.0,61,0.00,CLR,CLR,0.00,WeatherDisplay:10.37,2013-01-01 17:13:00,
2013-01-01 12:19:00,44.4,31.8,29.75,SSW,202,0.0,0.0,61,0.00,CLR,CLR,0.00,WeatherDisplay:10.37,2013-01-01 17:19:00,
2013-01-01 12:24:00,44.8,32.1,29.74,SSW,202,4.0,4.0,61,0.00,CLR,CLR,0.00,WeatherDisplay:10.37,2013-01-01 17:24:00,
2013-01-01 12:29:00,45.1,32.5,29.73,SW,225,4.6,4.6,61,0.00,CLR,CLR,0.00,WeatherDisplay:10.37,2013-01-01 17:29:00,
2013-01-01 12:34:00,45.3,32.7,29.74,South,180,4.6,4.6,61,0.00,CLR,CLR,0.00,WeatherDisplay:10.37,2013-01-01 17:34:00,
2013-01-01 12:39:00,45.5,32.4,29.73,SW,225,2.2,2.2,60,0.00,CLR,CLR,0.00,WeatherDisplay:10.37,2013-01-01 17:39:00,
2013-01-01 12:44:00,45.5,32.4,29.73,South,180,4.2,4.2,60,0.00,CLR,CLR,0.00,WeatherDisplay:10.37,2013-01-01 17:44:00,
2013-01-01 12:50:00,45.3,31.8,29.72,WNW,292,0.0,0.0,59,0.00,CLR,CLR,0.00,WeatherDisplay:10.37,2013-01-01 17:50:00,
2013-01-01 12:55:00,45.1,31.7,29.73,West,270,1.3,1.3,59,0.00,CLR,CLR,0.00,WeatherDisplay:10.37,2013-01-01 17:55:00,
2013-01-01 13:00:00,45.0,31.5,29.72,SW,225,0.0,0.0,59,0.00,CLR,CLR,0.00,WeatherDisplay:10.37,2013-01-01 18:00:00,
2013-01-01 13:05:00,44.8,31.3,29.73,SSW,202,2.7,2.7,59,0.00,CLR,CLR,0.00,WeatherDisplay:10.37,2013-01-01 18:05:00,
2013-01-01 13:11:00,44.6,31.1,29.72,WSW,248,2.3,0.0,59,0.00,CLR,CLR,0.00,WeatherDisplay:10.37,2013-01-01 18:11:00,
2013-01-01 13:16:00,44.4,31.0,29.72,SSW,202,3.5,3.5,59,0.00,CLR,CLR,0.00,WeatherDisplay:10.37,2013-01-01 18:16:00,
2013-01-01 13:21:00,44.2,30.8,29.72,SW,225,0.0,0.0,59,0.00,CLR,CLR,0.00,WeatherDisplay:10.37,2013-01-01 18:21:00,
2013-01-01 13:26:00,44.2,30.8,29.72,West,270,2.3,0.0,59,0.00,CLR,CLR,0.00,WeatherDisplay:10.37,2013-01-01 18:26:00,
2013-01-01 13:31:00,43.9,30.5,29.72,WSW,248,0.0,0.0,59,0.00,CLR,CLR,0.00,WeatherDisplay:10.37,2013-01-01 18:31:00,
2013-01-01 13:37:00,43.7,30.7,29.72,SSW,202,1.6,1.6,60,0.00,CLR,CLR,0.00,WeatherDisplay:10.37,2013-01-01 18:37:00,
2013-01-01 13:42:00,43.5,30.5,29.72,West,271,6.9,6.9,60,0.00,CLR,CLR,0.00,WeatherDisplay:10.37,2013-01-01 18:42:00,
2013-01-01 13:47:00,43.3,30.4,29.73,NW,315,8.1,8.1,60,0.00,CLR,CLR,0.00,WeatherDisplay:10.37,2013-01-01 18:47:00,
2013-01-01 13:52:00,43.2,30.2,29.73,SW,225,3.5,0.0,60,0.00,CLR,CLR,0.00,WeatherDisplay:10.37,2013-01-01 18:52:00,
2013-01-01 13:57:00,42.8,29.9,29.73,WNW,292,3.5,3.5,60,0.00,CLR,CLR,0.00,WeatherDisplay:10.37,2013-01-01 18:57:00,
2013-01-01 14:02:00,42.4,29.9,29.72,West,270,1.2,1.2,61,0.00,CLR,CLR,0.00,WeatherDisplay:10.37,2013-01-01 19:02:00,
2013-01-01 14:07:00,42.4,29.9,29.73,West,270,4.0,4.0,61,0.00,CLR,CLR,0.00,WeatherDisplay:10.37,2013-01-01 19:07:00,
2013-01-01 14:12:00,42.3,29.8,29.72,West,270,3.5,3.5,61,0.00,CLR,CLR,0.00,WeatherDisplay:10.37,2013-01-01 19:12:00,
2013-01-01 14:17:00,42.1,30.0,29.72,West,270,1.6,1.6,62,0.00,CLR,CLR,0.00,WeatherDisplay:10.37,2013-01-01 19:17:00,
2013-01-01 14:23:00,41.9,29.8,29.73,WNW,292,3.5,0.0,62,0.00,CLR,CLR,0.00,WeatherDisplay:10.37,2013-01-01 19:23:00,
2013-01-01 14:28:00,41.7,29.6,29.72,West,270,1.2,1.2,62,0.00,CLR,CLR,0.00,WeatherDisplay:10.37,2013-01-01 19:28:00,
2013-01-01 14:33:00,41.5,29.5,29.73,West,270,1.1,1.1,62,0.00,CLR,CLR,0.00,WeatherDisplay:10.37,2013-01-01 19:33:00,
2013-01-01 14:38:00,41.5,29.5,29.73,West,270,0.0,0.0,62,0.00,CLR,CLR,0.00,WeatherDisplay:10.37,2013-01-01 19:38:00,
2013-01-01 14:43:00,41.5,29.9,29.73,WNW,292,0.0,0.0,63,0.00,CLR,CLR,0.00,WeatherDisplay:10.37,2013-01-01 19:43:00,
2013-01-01 14:48:00,41.5,29.9,29.74,WNW,292,3.5,0.0,63,0.00,CLR,CLR,0.00,WeatherDisplay:10.37,2013-01-01 19:48:00,
2013-01-01 14:54:00,41.5,29.9,29.73,West,270,1.2,1.2,63,0.00,CLR,CLR,0.00,WeatherDisplay:10.37,2013-01-01 19:54:00,
2013-01-01 14:59:00,41.4,29.7,29.73,West,270,0.0,0.0,63,0.00,CLR,CLR,0.00,WeatherDisplay:10.37,2013-01-01 19:59:00,
2013-01-01 15:04:00,41.2,29.5,29.73,West,270,0.0,0.0,63,0.00,CLR,CLR,0.00,WeatherDisplay:10.37,2013-01-01 20:04:00,
2013-01-01 15:09:00,41.2,29.9,29.74,WNW,292,0.0,0.0,64,0.00,CLR,CLR,0.00,WeatherDisplay:10.37,2013-01-01 20:09:00,
2013-01-01 15:14:00,40.8,29.6,29.74,WNW,292,1.2,1.2,64,0.00,CLR,CLR,0.00,WeatherDisplay:10.37,2013-01-01 20:14:00,
2013-01-01 15:19:00,40.8,29.6,29.73,WNW,292,2.3,0.0,64,0.00,CLR,CLR,0.00,WeatherDisplay:10.37,2013-01-01 20:19:00,
2013-01-01 15:25:00,40.8,29.6,29.72,West,270,0.0,0.0,64,0.00,CLR,CLR,0.00,WeatherDisplay:10.37,2013-01-01 20:25:00,
2013-01-01 15:30:00,40.6,29.8,29.72,West,270,0.0,0.0,65,0.00,CLR,CLR,0.00,WeatherDisplay:10.37,2013-01-01 20:30:00,
2013-01-01 15:35:00,40.6,29.8,29.73,WNW,292,0.0,0.0,65,0.00,CLR,CLR,0.00,WeatherDisplay:10.37,2013-01-01 20:35:00,
2013-01-01 15:40:00,40.6,29.8,29.74,WSW,248,0.0,0.0,65,0.00,CLR,CLR,0.00,WeatherDisplay:10.37,2013-01-01 20:40:00,
2013-01-01 15:45:00,40.6,29.8,29.74,SW,225,0.0,0.0,65,0.00,CLR,CLR,0.00,WeatherDisplay:10.37,2013-01-01 20:45:00,
2013-01-01 15:50:00,40.5,29.6,29.74,WSW,248,0.0,0.0,65,0.00,CLR,CLR,0.00,WeatherDisplay:10.37,2013-01-01 20:50:00,
2013-01-01 15:56:00,40.5,29.6,29.74,West,270,0.0,0.0,65,0.00,CLR,CLR,0.00,WeatherDisplay:10.37,2013-01-01 20:56:00,
2013-01-01 16:01:00,40.3,29.4,29.75,West,270,2.3,2.3,65,0.00,CLR,CLR,0.00,WeatherDisplay:10.37,2013-01-01 21:01:00,
2013-01-01 16:06:00,40.3,29.8,29.75,West,270,1.2,1.2,66,0.00,CLR,CLR,0.00,WeatherDisplay:10.37,2013-01-01 21:06:00,
2013-01-01 16:11:00,40.1,29.6,29.75,NW,315,3.5,3.5,66,0.00,CLR,CLR,0.00,WeatherDisplay:10.37,2013-01-01 21:11:00,
2013-01-01 16:16:00,39.9,29.5,29.75,West,270,4.6,4.6,66,0.00,CLR,CLR,0.00,WeatherDisplay:10.37,2013-01-01 21:16:00,
2013-01-01 16:21:00,39.9,29.5,29.75,West,270,0.0,0.0,66,0.00,CLR,CLR,0.00,WeatherDisplay:10.37,2013-01-01 21:21:00,
2013-01-01 16:26:00,39.9,29.5,29.75,WNW,292,0.0,0.0,66,0.00,CLR,CLR,0.00,WeatherDisplay:10.37,2013-01-01 21:26:00,
2013-01-01 16:32:00,39.7,29.7,29.75,WSW,248,1.2,0.0,67,0.00,CLR,CLR,0.00,WeatherDisplay:10.37,2013-01-01 21:32:00,
2013-01-01 16:37:00,39.7,29.7,29.75,WNW,292,0.0,0.0,67,0.00,CLR,CLR,0.00,WeatherDisplay:10.37,2013-01-01 21:37:00,
2013-01-01 16:42:00,39.6,29.5,29.76,SW,225,3.5,3.5,67,0.00,CLR,CLR,0.00,WeatherDisplay:10.37,2013-01-01 21:42:00,
2013-01-01 16:47:00,39.6,29.5,29.76,WSW,248,0.0,0.0,67,0.00,CLR,CLR,0.00,WeatherDisplay:10.37,2013-01-01 21:47:00,
2013-01-01 16:52:00,39.4,29.3,29.76,West,270,2.0,0.0,67,0.00,CLR,CLR,0.00,WeatherDisplay:10.37,2013-01-01 21:52:00,
2013-01-01 16:58:00,39.4,29.3,29.75,WSW,248,3.5,3.5,67,0.00,CLR,CLR,0.00,WeatherDisplay:10.37,2013-01-01 21:58:00,
2013-01-01 17:03:00,39.2,29.2,29.76,West,270,2.7,0.0,67,0.00,CLR,CLR,0.00,WeatherDisplay:10.37,2013-01-01 22:03:00,
2013-01-01 17:08:00,39.0,29.3,29.76,WSW,248,0.9,0.0,68,0.00,CLR,CLR,0.00,WeatherDisplay:10.37,2013-01-01 22:08:00,
2013-01-01 17:13:00,39.0,29.3,29.77,WNW,292,1.8,1.8,68,0.00,CLR,CLR,0.00,WeatherDisplay:10.37,2013-01-01 22:13:00,
2013-01-01 17:18:00,39.0,29.3,29.77,WNW,292,1.2,1.2,68,0.00,CLR,CLR,0.00,WeatherDisplay:10.37,2013-01-01 22:18:00,
2013-01-01 17:24:00,39.0,29.3,29.77,West,270,3.5,0.0,68,0.00,CLR,CLR,0.00,WeatherDisplay:10.37,2013-01-01 22:24:00,
2013-01-01 17:29:00,38.8,29.2,29.78,West,270,3.5,3.5,68,0.00,CLR,CLR,0.00,WeatherDisplay:10.37,2013-01-01 22:29:00,
2013-01-01 17:34:00,38.8,29.2,29.77,WSW,248,0.0,0.0,68,0.00,CLR,CLR,0.00,WeatherDisplay:10.37,2013-01-01 22:34:00,
2013-01-01 17:39:00,38.8,29.5,29.77,West,270,2.3,0.0,69,0.00,CLR,CLR,0.00,WeatherDisplay:10.37,2013-01-01 22:39:00,
2013-01-01 17:45:00,38.8,29.5,29.78,West,270,0.0,0.0,69,0.00,CLR,CLR,0.00,WeatherDisplay:10.37,2013-01-01 22:45:00,
2013-01-01 17:50:00,38.8,29.5,29.79,WSW,248,2.3,2.3,69,0.00,CLR,CLR,0.00,WeatherDisplay:10.37,2013-01-01 22:50:00,
2013-01-01 17:55:00,38.8,29.5,29.79,West,270,0.0,0.0,69,0.00,CLR,CLR,0.00,WeatherDisplay:10.37,2013-01-01 22:55:00,
2013-01-01 18:00:00,38.8,29.5,29.79,SW,225,3.5,3.5,69,0.00,CLR,CLR,0.00,WeatherDisplay:10.37,2013-01-01 23:00:00,
2013-01-01 18:05:00,38.8,29.5,29.78,West,270,6.9,6.9,69,0.00,CLR,CLR,0.00,WeatherDisplay:10.37,2013-01-01 23:05:00,
2013-01-01 18:11:00,38.5,29.2,29.79,WSW,248,3.5,3.5,69,0.00,CLR,CLR,0.00,WeatherDisplay:10.37,2013-01-01 23:11:00,
2013-01-01 18:16:00,38.5,29.2,29.78,SW,225,4.6,4.6,69,0.00,CLR,CLR,0.00,WeatherDisplay:10.37,2013-01-01 23:16:00,
2013-01-01 18:21:00,38.5,29.2,29.79,WNW,292,3.4,3.4,69,0.00,CLR,CLR,0.00,WeatherDisplay:10.37,2013-01-01 23:21:00,
2013-01-01 18:26:00,38.5,29.2,29.80,West,270,2.3,2.3,69,0.00,CLR,CLR,0.00,WeatherDisplay:10.37,2013-01-01 23:26:00,
2013-01-01 18:32:00,38.5,29.2,29.79,WNW,292,0.0,0.0,69,0.00,CLR,CLR,0.00,WeatherDisplay:10.37,2013-01-01 23:32:00,
2013-01-01 18:37:00,38.5,29.2,29.80,WNW,292,3.5,3.5,69,0.00,CLR,CLR,0.00,WeatherDisplay:10.37,2013-01-01 23:37:00,
2013-01-01 18:42:00,38.5,29.5,29.80,WNW,292,2.3,2.3,70,0.00,CLR,CLR,0.00,WeatherDisplay:10.37,2013-01-01 23:42:00,
2013-01-01 18:47:00,38.1,29.2,29.79,NW,315,3.8,3.8,70,0.00,CLR,CLR,0.00,WeatherDisplay:10.37,2013-01-01 23:47:00,
2013-01-01 18:52:00,37.9,29.4,29.80,WNW,292,4.6,4.6,71,0.00,CLR,CLR,0.00,WeatherDisplay:10.37,2013-01-01 23:52:00,
2013-01-01 18:58:00,37.9,29.4,29.81,WSW,248,2.3,2.3,71,0.00,CLR,CLR,0.00,WeatherDisplay:10.37,2013-01-01 23:58:00,
2013-01-01 19:03:00,37.6,29.4,29.80,West,270,1.2,1.2,72,0.00,CLR,CLR,0.00,WeatherDisplay:10.37,2013-01-02 00:03:00,
2013-01-01 19:08:00,37.6,29.4,29.80,West,270,0.0,0.0,72,0.00,CLR,CLR,0.00,WeatherDisplay:10.37,2013-01-02 00:08:00,
2013-01-01 19:13:00,37.4,29.5,29.80,WSW,248,0.0,0.0,73,0.00,CLR,CLR,0.00,WeatherDisplay:10.37,2013-01-02 00:13:00,
2013-01-01 19:18:00,37.4,29.5,29.80,WNW,292,0.0,0.0,73,0.00,CLR,CLR,0.00,WeatherDisplay:10.37,2013-01-02 00:18:00,
2013-01-01 19:24:00,37.2,29.4,29.80,WNW,292,0.0,0.0,73,0.00,CLR,CLR,0.00,WeatherDisplay:10.37,2013-01-02 00:24:00,
2013-01-01 19:29:00,37.2,29.4,29.80,WSW,248,0.0,0.0,73,0.00,CLR,CLR,0.00,WeatherDisplay:10.37,2013-01-02 00:29:00,
2013-01-01 19:34:00,37.2,29.7,29.80,SW,225,0.0,0.0,74,0.00,CLR,CLR,0.00,WeatherDisplay:10.37,2013-01-02 00:34:00,
2013-01-01 19:39:00,37.2,29.7,29.80,SW,225,0.0,0.0,74,0.00,CLR,CLR,0.00,WeatherDisplay:10.37,2013-01-02 00:39:00,
2013-01-01 19:44:00,37.0,29.5,29.80,WNW,292,0.0,0.0,74,0.00,CLR,CLR,0.00,WeatherDisplay:10.37,2013-01-02 00:44:00,
2013-01-01 19:49:00,37.0,29.5,29.80,WNW,292,0.0,0.0,74,0.00,CLR,CLR,0.00,WeatherDisplay:10.37,2013-01-02 00:49:00,
2013-01-01 19:55:00,37.0,29.5,29.79,WNW,292,0.0,0.0,74,0.00,CLR,CLR,0.00,WeatherDisplay:10.37,2013-01-02 00:55:00,
2013-01-01 20:00:00,36.9,29.3,29.80,West,270,0.0,0.0,74,0.00,CLR,CLR,0.00,WeatherDisplay:10.37,2013-01-02 01:00:00,
2013-01-01 20:05:00,36.9,29.3,29.80,West,270,0.0,0.0,74,0.00,CLR,CLR,0.00,WeatherDisplay:10.37,2013-01-02 01:05:00,
2013-01-01 20:10:00,36.7,29.2,29.80,SW,225,0.0,0.0,74,0.00,CLR,CLR,0.00,WeatherDisplay:10.37,2013-01-02 01:10:00,
2013-01-01 20:16:00,36.7,29.5,29.80,West,270,0.0,0.0,75,0.00,CLR,CLR,0.00,WeatherDisplay:10.37,2013-01-02 01:16:00,
2013-01-01 20:21:00,36.7,29.5,29.80,West,270,0.0,0.0,75,0.00,CLR,CLR,0.00,WeatherDisplay:10.37,2013-01-02 01:21:00,
2013-01-01 20:26:00,36.5,29.3,29.80,NW,315,0.0,0.0,75,0.00,CLR,CLR,0.00,WeatherDisplay:10.37,2013-01-02 01:26:00,
2013-01-01 20:31:00,36.5,29.3,29.80,NNW,338,0.0,0.0,75,0.00,CLR,CLR,0.00,WeatherDisplay:10.37,2013-01-02 01:31:00,
2013-01-01 20:37:00,36.5,29.3,29.80,NNE,22,0.0,0.0,75,0.00,CLR,CLR,0.00,WeatherDisplay:10.37,2013-01-02 01:37:00,
2013-01-01 20:42:00,36.5,29.3,29.81,NNE,22,0.0,0.0,75,0.00,CLR,CLR,0.00,WeatherDisplay:10.37,2013-01-02 01:42:00,
2013-01-01 20:47:00,36.5,29.3,29.80,NE,45,0.0,0.0,75,0.00,CLR,CLR,0.00,WeatherDisplay:10.37,2013-01-02 01:47:00,
2013-01-01 20:52:00,36.5,29.3,29.81,North,0,1.8,1.8,75,0.00,CLR,CLR,0.00,WeatherDisplay:10.37,2013-01-02 01:52:00,
2013-01-01 20:57:00,36.3,29.2,29.81,NE,45,0.0,0.0,75,0.00,CLR,CLR,0.00,WeatherDisplay:10.37,2013-01-02 01:57:00,
2013-01-01 21:02:00,36.3,29.2,29.81,NE,45,0.0,0.0,75,0.00,CLR,CLR,0.00,WeatherDisplay:10.37,2013-01-02 02:02:00,
2013-01-01 21:08:00,36.1,29.0,29.81,NE,45,1.2,1.2,75,0.00,CLR,CLR,0.00,WeatherDisplay:10.37,2013-01-02 02:08:00,
2013-01-01 21:13:00,36.1,29.0,29.82,NE,45,0.0,0.0,75,0.00,CLR,CLR,0.00,WeatherDisplay:10.37,2013-01-02 02:13:00,
2013-01-01 21:18:00,36.1,29.0,29.82,NW,315,2.3,0.0,75,0.00,CLR,CLR,0.00,WeatherDisplay:10.37,2013-01-02 02:18:00,
2013-01-01 21:23:00,36.3,29.2,29.82,NE,45,0.0,0.0,75,0.00,CLR,CLR,0.00,WeatherDisplay:10.37,2013-01-02 02:23:00,
2013-01-01 21:29:00,36.3,28.8,29.82,NW,315,0.0,0.0,74,0.00,CLR,CLR,0.00,WeatherDisplay:10.37,2013-01-02 02:29:00,
2013-01-01 21:34:00,36.3,28.8,29.81,NW,315,0.0,0.0,74,0.00,CLR,CLR,0.00,WeatherDisplay:10.37,2013-01-02 02:34:00,
2013-01-01 21:39:00,36.3,28.8,29.81,North,0,0.0,0.0,74,0.00,CLR,CLR,0.00,WeatherDisplay:10.37,2013-01-02 02:39:00,
2013-01-01 21:44:00,36.3,28.5,29.82,NW,315,0.0,0.0,73,0.00,CLR,CLR,0.00,WeatherDisplay:10.37,2013-01-02 02:44:00,
2013-01-01 21:49:00,36.3,28.5,29.82,NW,315,0.0,0.0,73,0.00,CLR,CLR,0.00,WeatherDisplay:10.37,2013-01-02 02:49:00,
2013-01-01 21:55:00,36.3,28.5,29.83,NW,315,0.0,0.0,73,0.00,CLR,CLR,0.00,WeatherDisplay:10.37,2013-01-02 02:55:00,
2013-01-01 22:00:00,36.1,28.3,29.82,NNW,338,0.0,0.0,73,0.00,CLR,CLR,0.00,WeatherDisplay:10.37,2013-01-02 03:00:00,
2013-01-01 22:05:00,36.1,28.0,29.83,NW,315,0.0,0.0,72,0.00,CLR,CLR,0.00,WeatherDisplay:10.37,2013-01-02 03:05:00,
2013-01-01 22:10:00,36.1,28.0,29.83,NW,315,2.3,0.0,72,0.00,CLR,CLR,0.00,WeatherDisplay:10.37,2013-01-02 03:10:00,
2013-01-01 22:16:00,36.0,27.8,29.82,West,270,4.0,4.0,72,0.00,CLR,CLR,0.00,WeatherDisplay:10.37,2013-01-02 03:16:00,
2013-01-01 22:21:00,35.8,27.3,29.81,NW,315,1.2,0.0,71,0.00,CLR,CLR,0.00,WeatherDisplay:10.37,2013-01-02 03:21:00,
2013-01-01 22:26:00,36.0,27.5,29.81,West,270,2.3,2.3,71,0.00,CLR,CLR,0.00,WeatherDisplay:10.37,2013-01-02 03:26:00,
2013-01-01 22:31:00,36.0,27.1,29.82,WNW,292,0.0,0.0,70,0.00,CLR,CLR,0.00,WeatherDisplay:10.37,2013-01-02 03:31:00,
2013-01-01 22:37:00,36.0,27.1,29.82,West,270,3.5,3.5,70,0.00,CLR,CLR,0.00,WeatherDisplay:10.37,2013-01-02 03:37:00,
2013-01-01 22:42:00,36.0,27.1,29.81,SW,225,0.0,0.0,70,0.00,CLR,CLR,0.00,WeatherDisplay:10.37,2013-01-02 03:42:00,
2013-01-01 22:47:00,35.8,26.9,29.83,SSW,202,1.2,1.2,70,0.00,CLR,CLR,0.00,WeatherDisplay:10.37,2013-01-02 03:47:00,
2013-01-01 22:52:00,35.8,26.9,29.83,WNW,292,0.0,0.0,70,0.00,CLR,CLR,0.00,WeatherDisplay:10.37,2013-01-02 03:52:00,
2013-01-01 22:57:00,36.0,26.8,29.83,WNW,292,5.8,5.8,69,0.00,CLR,CLR,0.00,WeatherDisplay:10.37,2013-01-02 03:57:00,
2013-01-01 23:03:00,36.0,26.8,29.82,West,270,2.3,2.3,69,0.00,CLR,CLR,0.00,WeatherDisplay:10.37,2013-01-02 04:03:00,
2013-01-01 23:08:00,36.0,26.8,29.82,West,270,3.5,3.5,69,0.00,CLR,CLR,0.00,WeatherDisplay:10.37,2013-01-02 04:08:00,
2013-01-01 23:13:00,35.8,26.2,29.82,West,270,0.0,0.0,68,0.00,CLR,CLR,0.00,WeatherDisplay:10.37,2013-01-02 04:13:00,
2013-01-01 23:18:00,35.8,26.2,29.82,WNW,292,0.0,0.0,68,0.00,CLR,CLR,0.00,WeatherDisplay:10.37,2013-01-02 04:18:00,
2013-01-01 23:23:00,35.8,25.9,29.82,North,0,0.0,0.0,67,0.00,CLR,CLR,0.00,WeatherDisplay:10.37,2013-01-02 04:23:00,
2013-01-01 23:29:00,35.8,25.9,29.82,NW,315,0.0,0.0,67,0.00,CLR,CLR,0.00,WeatherDisplay:10.37,2013-01-02 04:29:00,
2013-01-01 23:34:00,35.8,25.9,29.83,North,0,0.0,0.0,67,0.00,CLR,CLR,0.00,WeatherDisplay:10.37,2013-01-02 04:34:00,
2013-01-01 23:39:00,35.8,25.9,29.82,NW,315,1.2,0.0,67,0.00,CLR,CLR,0.00,WeatherDisplay:10.37,2013-01-02 04:39:00,
2013-01-01 23:44:00,35.4,25.5,29.82,SSW,202,0.0,0.0,67,0.00,CLR,CLR,0.00,WeatherDisplay:10.37,2013-01-02 04:44:00,
2013-01-01 23:49:00,35.4,25.5,29.82,West,270,1.2,0.0,67,0.00,CLR,CLR,0.00,WeatherDisplay:10.37,2013-01-02 04:49:00,
2013-01-01 23:54:00,35.2,25.4,29.82,WNW,292,2.9,2.9,67,0.00,CLR,CLR,0.00,WeatherDisplay:10.37,2013-01-02 04:54:00,